| time (UTC) | temp F | wind direction | speed MPH | gust MPH | rain 1hr in | rain 24hr in | rain mn in | humidity % | barometer mb |
| 20260508020002 | 41 | 150 | 4.0 | 0.0 | 0.00 | 0.00 | 0.00 | 82 | 1015.5 |
| 20260508014628 | 41 | 159 | 4.0 | 0.0 | 0.00 | 0.00 | 0.00 | 81 | 1015.5 |
| 20260508013101 | 41 | 186 | 2.0 | 0.0 | 0.00 | 0.00 | 0.00 | 80 | 1015.5 |
| 20260508011615 | 41 | 192 | 2.0 | 0.0 | 0.00 | 0.00 | 0.00 | 79 | 1015.5 |
| 20260508004558 | 41 | 192 | 1.0 | 0.0 | 0.00 | 0.00 | 0.00 | 79 | 1015.5 |
| 20260508003056 | 41 | 192 | 2.0 | 0.0 | 0.00 | 0.00 | 0.00 | 79 | 1015.5 |
| 20260508001600 | 41 | 192 | 1.0 | 0.0 | 0.00 | 0.00 | 0.00 | 79 | 1015.5 |
| 20260508000056 | 41 | 192 | 2.0 | 0.0 | 0.00 | 0.00 | 0.00 | 79 | 1015.5 |
| 20260507234553 | 41 | 193 | 2.0 | 0.0 | 0.00 | 0.00 | 0.00 | 80 | 1015.6 |
| 20260507233052 | 41 | 193 | 0.0 | 0.0 | 0.00 | 0.00 | 0.00 | 82 | 1015.6 |
| 20260507231551 | 41 | 193 | 0.0 | 0.0 | 0.00 | 0.00 | 0.00 | 82 | 1015.6 |
| 20260507230049 | 41 | 193 | 1.0 | 0.0 | 0.00 | 0.00 | 0.00 | 82 | 1015.7 |
| 20260507224549 | 41 | 193 | 2.0 | 0.0 | 0.00 | 0.00 | 0.00 | 81 | 1015.8 |
| 20260507223046 | 42 | 193 | 3.0 | 0.0 | 0.00 | 0.00 | 0.00 | 79 | 1015.8 |
| 20260507221544 | 41 | 282 | 2.0 | 0.0 | 0.00 | 0.00 | 0.00 | 78 | 1015.7 |
| 20260507220042 | 41 | 282 | 2.0 | 0.0 | 0.00 | 0.00 | 0.06 | 75 | 1015.8 |
| 20260507214547 | 41 | 282 | 2.0 | 0.0 | 0.00 | 0.00 | 0.06 | 75 | 1015.7 |
| 20260507213041 | 41 | 282 | 2.0 | 0.0 | 0.00 | 0.00 | 0.06 | 75 | 1015.6 |
| 20260507211544 | 41 | 282 | 1.0 | 0.0 | 0.00 | 0.00 | 0.06 | 75 | 1015.6 |
| 20260507210040 | 41 | 282 | 1.0 | 0.0 | 0.00 | 0.00 | 0.06 | 75 | 1015.6 |
| 20260507204540 | 41 | 282 | 0.0 | 0.0 | 0.00 | 0.00 | 0.06 | 75 | 1015.6 |
| 20260507203040 | 41 | 282 | 0.0 | 0.0 | 0.00 | 0.00 | 0.06 | 75 | 1015.6 |
| 20260507201543 | 42 | 282 | 0.0 | 0.0 | 0.00 | 0.00 | 0.06 | 73 | 1015.5 |
| 20260507200040 | 42 | 282 | 0.0 | 0.0 | 0.00 | 0.00 | 0.06 | 72 | 1015.5 |
| 20260507194538 | 43 | 282 | 0.0 | 0.0 | 0.00 | 0.00 | 0.06 | 71 | 1015.5 |
| 20260507193039 | 43 | 282 | 0.0 | 0.0 | 0.00 | 0.00 | 0.06 | 70 | 1015.5 |
| 20260507191537 | 44 | 282 | 2.0 | 0.0 | 0.00 | 0.00 | 0.06 | 69 | 1015.5 |
| 20260507190037 | 45 | 282 | 3.0 | 0.0 | 0.00 | 0.00 | 0.06 | 68 | 1015.4 |
| 20260507184538 | 46 | 282 | 4.0 | 0.0 | 0.00 | 0.00 | 0.06 | 66 | 1015.3 |
| 20260507183045 | 46 | 281 | 4.0 | 0.0 | 0.00 | 0.00 | 0.06 | 66 | 1015.4 |
| 20260507181540 | 46 | 286 | 4.0 | 0.0 | 0.00 | 0.00 | 0.06 | 65 | 1015.3 |
| 20260507180036 | 45 | 288 | 4.0 | 0.0 | 0.00 | 0.00 | 0.06 | 65 | 1015.2 |
| 20260507174535 | 46 | 284 | 3.0 | 0.0 | 0.00 | 0.00 | 0.06 | 65 | 1015.1 |
| 20260507173035 | 47 | 284 | 3.0 | 0.0 | 0.00 | 0.00 | 0.06 | 62 | 1015.1 |
| 20260507171533 | 49 | 285 | 2.0 | 0.0 | 0.00 | 0.00 | 0.06 | 54 | 1015.1 |
| 20260507170032 | 49 | 285 | 3.0 | 0.0 | 0.00 | 0.00 | 0.06 | 56 | 1015.2 |
| 20260507164538 | 49 | 284 | 2.0 | 0.0 | 0.00 | 0.00 | 0.06 | 55 | 1015.2 |
| 20260507163037 | 50 | 284 | 2.0 | 0.0 | 0.00 | 0.00 | 0.06 | 57 | 1015.3 |
| 20260507161539 | 49 | 284 | 3.0 | 0.0 | 0.00 | 0.00 | 0.06 | 54 | 1015.4 |
| 20260507160042 | 48 | 281 | 3.0 | 0.0 | 0.00 | 0.00 | 0.06 | 60 | 1015.5 |
| 20260507154531 | 47 | 288 | 3.0 | 0.0 | 0.00 | 0.00 | 0.06 | 66 | 1015.5 |
| 20260507153031 | 47 | 285 | 4.0 | 0.0 | 0.00 | 0.00 | 0.06 | 64 | 1015.5 |
| 20260507151529 | 48 | 292 | 5.0 | 0.0 | 0.00 | 0.00 | 0.06 | 63 | 1015.6 |
| 20260507150030 | 48 | 271 | 4.0 | 0.0 | 0.00 | 0.00 | 0.06 | 59 | 1015.6 |
| 20260507144534 | 49 | 264 | 4.0 | 0.0 | 0.00 | 0.00 | 0.06 | 58 | 1015.6 |
| 20260507143026 | 50 | 242 | 3.0 | 0.0 | 0.00 | 0.00 | 0.06 | 62 | 1015.8 |
| 20260507141524 | 49 | 227 | 4.0 | 0.0 | 0.00 | 0.00 | 0.06 | 62 | 1016.0 |
| 20260507140023 | 49 | 273 | 4.0 | 0.0 | 0.00 | 0.00 | 0.06 | 59 | 1015.8 |
| 20260507134523 | 48 | 226 | 5.0 | 0.0 | 0.00 | 0.00 | 0.06 | 63 | 1016.0 |
| 20260507133022 | 48 | 256 | 4.0 | 0.0 | 0.00 | 0.00 | 0.06 | 63 | 1016.1 |
| 20260507131522 | 48 | 246 | 5.0 | 0.0 | 0.00 | 0.00 | 0.06 | 64 | 1016.1 |
| 20260507130026 | 48 | 271 | 4.0 | 0.0 | 0.00 | 0.00 | 0.06 | 65 | 1016.1 |
| 20260507124524 | 49 | 228 | 5.0 | 0.0 | 0.00 | 0.00 | 0.06 | 64 | 1016.1 |
| 20260507123016 | 48 | 243 | 5.0 | 0.0 | 0.00 | 0.00 | 0.06 | 65 | 1016.2 |
| 20260507121513 | 48 | 226 | 5.0 | 0.0 | 0.00 | 0.00 | 0.06 | 65 | 1016.4 |
| 20260507120012 | 48 | 256 | 6.0 | 0.0 | 0.00 | 0.00 | 0.06 | 65 | 1016.1 |
| 20260507114512 | 49 | 229 | 5.0 | 0.0 | 0.00 | 0.00 | 0.06 | 65 | 1016.3 |
| 20260507113016 | 49 | 208 | 4.0 | 0.0 | 0.00 | 0.00 | 0.06 | 65 | 1016.4 |
| 20260507111515 | 49 | 206 | 4.0 | 0.0 | 0.00 | 0.00 | 0.06 | 64 | 1016.3 |
| 20260507110023 | 46 | 209 | 4.0 | 0.0 | 0.00 | 0.00 | 0.06 | 67 | 1016.5 |
| 20260507104508 | 46 | 202 | 4.0 | 0.0 | 0.00 | 0.00 | 0.06 | 66 | 1016.2 |
| 20260507103007 | 46 | 196 | 5.0 | 0.0 | 0.00 | 0.00 | 0.06 | 68 | 1016.1 |
| 20260507101507 | 46 | 232 | 6.0 | 0.0 | 0.00 | 0.00 | 0.06 | 71 | 1016.1 |
| 20260507100009 | 45 | 223 | 7.0 | 0.0 | 0.00 | 0.00 | 0.06 | 72 | 1016.1 |
| 20260507094505 | 48 | 221 | 5.0 | 0.0 | 0.00 | 0.00 | 0.06 | 67 | 1016.1 |
| 20260507093003 | 47 | 165 | 3.0 | 0.0 | 0.00 | 0.00 | 0.06 | 65 | 1016.0 |
| 20260507091501 | 46 | 165 | 3.0 | 0.0 | 0.00 | 0.00 | 0.06 | 65 | 1016.0 |
| 20260507090106 | 45 | 169 | 2.0 | 0.0 | 0.00 | 0.00 | 0.06 | 67 | 1016.0 |
| 20260507084559 | 45 | 170 | 3.0 | 0.0 | 0.00 | 0.00 | 0.06 | 68 | 1016.0 |
| 20260507083059 | 45 | 165 | 3.0 | 0.0 | 0.00 | 0.00 | 0.06 | 69 | 1015.8 |
| 20260507081558 | 45 | 155 | 3.0 | 0.0 | 0.00 | 0.00 | 0.06 | 67 | 1015.6 |
| 20260507074607 | 45 | 150 | 2.0 | 0.0 | 0.00 | 0.00 | 0.06 | 70 | 1015.5 |
| 20260507073050 | 44 | 144 | 3.0 | 0.0 | 0.00 | 0.00 | 0.06 | 74 | 1015.5 |
| 20260507071551 | 43 | 144 | 4.0 | 0.0 | 0.00 | 0.00 | 0.06 | 75 | 1015.5 |
| 20260507070104 | 43 | 129 | 4.0 | 0.0 | 0.00 | 0.00 | 0.06 | 76 | 1015.5 |
| 20260507064544 | 42 | 126 | 4.0 | 0.0 | 0.00 | 0.00 | 0.06 | 77 | 1015.4 |
| 20260507063053 | 41 | 126 | 4.0 | 0.0 | 0.00 | 0.00 | 0.06 | 79 | 1015.3 |
| 20260507061546 | 41 | 119 | 3.0 | 0.0 | 0.00 | 0.00 | 0.06 | 82 | 1015.2 |
| 20260507060044 | 41 | 119 | 4.0 | 0.0 | 0.00 | 0.00 | 0.06 | 82 | 1015.1 |
| 20260507054542 | 40 | 118 | 3.0 | 0.0 | 0.00 | 0.00 | 0.06 | 84 | 1015.0 |
| 20260507053039 | 39 | 118 | 3.0 | 0.0 | 0.00 | 0.00 | 0.06 | 85 | 1015.0 |
| 20260507051536 | 39 | 118 | 2.0 | 0.0 | 0.00 | 0.00 | 0.06 | 86 | 1015.0 |
| 20260507050037 | 38 | 118 | 3.0 | 0.0 | 0.00 | 0.00 | 0.06 | 87 | 1014.9 |
| 20260507044534 | 38 | 119 | 3.0 | 0.0 | 0.00 | 0.00 | 0.06 | 87 | 1014.7 |
| 20260507043032 | 38 | 118 | 3.0 | 0.0 | 0.00 | 0.00 | 0.06 | 88 | 1014.6 |
| 20260507041531 | 38 | 117 | 3.0 | 0.0 | 0.00 | 0.00 | 0.06 | 89 | 1014.5 |
| 20260507040031 | 38 | 117 | 4.0 | 0.0 | 0.00 | 0.00 | 0.06 | 89 | 1014.5 |
| 20260507034535 | 38 | 112 | 3.0 | 0.0 | 0.00 | 0.00 | 0.06 | 89 | 1014.5 |
| 20260507033030 | 38 | 112 | 3.0 | 0.0 | 0.00 | 0.00 | 0.06 | 89 | 1014.5 |
| 20260507031529 | 38 | 112 | 3.0 | 0.0 | 0.00 | 0.00 | 0.06 | 89 | 1014.5 |
| 20260507030030 | 38 | 112 | 2.0 | 0.0 | 0.00 | 0.00 | 0.06 | 89 | 1014.4 |
| 20260507024528 | 38 | 112 | 2.0 | 0.0 | 0.00 | 0.00 | 0.06 | 89 | 1014.4 |
| 20260507023027 | 38 | 112 | 3.0 | 0.0 | 0.00 | 0.00 | 0.06 | 89 | 1014.4 |
| 20260507021529 | 38 | 111 | 4.0 | 0.0 | 0.00 | 0.00 | 0.06 | 89 | 1014.3 |